Terminal Aerodrome Forecast
Issued by NWS Omaha/Valley, NE

Home | Current Version | Previous Version | Graphics & Text | Print | Product List | Glossary On
Versions: 1 2 3 4 5 6 7 8 9 10 11 12 13 14 15 16 17 18 19 20 21 22 23 24 25 26 27 28 29 30 31 32 33 34 35 36 37 38
000
FTUS43 KOAX 212320
TAFOFK
TAF
KOFK 212320Z 2200/2224 20005KT P6SM SCT050
     FM220600 14005KT P6SM VCSH BKN050
     FM221300 15009KT P6SM SCT060
     FM221700 17011KT P6SM SCT050=

USA.gov is the U.S. government's official web portal to all federal, state and local government web resources and services.